createdAt,value
2024-02-08T00:02:06.298Z,1
2024-02-08T00:14:06.263Z,1
2024-02-08T00:26:06.237Z,1
2024-02-08T00:38:06.346Z,1
2024-02-08T00:50:06.408Z,1
2024-02-08T01:02:06.170Z,1
2024-02-08T01:14:06.443Z,1
2024-02-08T01:26:06.400Z,1
2024-02-08T01:38:06.340Z,1
2024-02-08T01:50:06.270Z,1
2024-02-08T02:02:06.299Z,1
2024-02-08T02:14:06.417Z,1
2024-02-08T02:26:06.455Z,1
2024-02-08T02:38:06.305Z,1
2024-02-08T02:50:06.540Z,1
2024-02-08T03:02:06.443Z,1
2024-02-08T03:14:06.393Z,1
2024-02-08T03:26:06.349Z,1
2024-02-08T03:38:06.520Z,1
2024-02-08T03:50:06.493Z,1
2024-02-08T04:02:06.495Z,1
2024-02-08T04:14:06.426Z,1
2024-02-08T04:26:06.574Z,1
2024-02-08T04:38:06.505Z,1
2024-02-08T04:50:06.497Z,1
2024-02-08T05:02:06.594Z,1
2024-02-08T05:14:06.697Z,1
2024-02-08T05:26:06.509Z,1
2024-02-08T05:38:06.505Z,1
2024-02-08T05:50:06.678Z,1
2024-02-08T06:02:06.699Z,1
2024-02-08T06:14:06.530Z,1
2024-02-08T06:26:06.535Z,1
2024-02-08T06:38:06.660Z,1
2024-02-08T06:50:06.738Z,1
2024-02-08T07:02:06.735Z,1
2024-02-08T07:14:06.730Z,1
2024-02-08T07:26:06.688Z,1
2024-02-08T07:38:06.614Z,1
2024-02-08T07:50:06.721Z,14
2024-02-08T08:02:06.677Z,33
2024-02-08T08:14:06.789Z,53
2024-02-08T08:26:06.742Z,66
2024-02-08T08:38:06.701Z,74
2024-02-08T08:50:06.730Z,73
2024-02-08T09:02:06.925Z,77
2024-02-08T09:14:06.828Z,80
2024-02-08T09:26:06.755Z,83
2024-02-08T09:38:06.677Z,87
2024-02-08T09:50:06.837Z,88
2024-02-08T10:02:06.905Z,88
2024-02-08T10:14:06.940Z,89
2024-02-08T10:26:06.997Z,88
2024-02-08T10:38:06.986Z,87
2024-02-08T10:50:06.933Z,87
2024-02-08T11:02:07.151Z,87
2024-02-08T11:14:07.099Z,89
2024-02-08T11:26:06.793Z,88
2024-02-08T11:38:06.996Z,90
2024-02-08T11:50:07.129Z,90
2024-02-08T12:02:06.944Z,89
2024-02-08T12:14:11.011Z,87
2024-02-08T12:26:07.018Z,87
2024-02-08T12:38:06.930Z,87
2024-02-08T12:50:11.408Z,89
2024-02-08T13:02:07.065Z,87
2024-02-08T13:14:07.040Z,91
2024-02-08T13:26:07.441Z,92
2024-02-08T13:38:07.023Z,93
2024-02-08T13:50:07.209Z,94
2024-02-08T14:02:07.080Z,89
2024-02-08T14:14:06.983Z,90
2024-02-08T14:26:07.217Z,90
2024-02-08T14:38:07.119Z,87
2024-02-08T14:50:07.138Z,86
2024-02-08T15:02:07.077Z,85
2024-02-08T15:14:07.205Z,87
2024-02-08T15:26:07.156Z,83
2024-02-08T15:38:07.177Z,82
2024-02-08T15:50:07.312Z,81
2024-02-08T16:02:07.320Z,80
2024-02-08T16:14:07.185Z,77
2024-02-08T16:26:07.537Z,73
2024-02-08T16:38:07.306Z,66
2024-02-08T16:50:07.295Z,59
2024-02-08T17:02:07.256Z,46
2024-02-08T17:14:07.201Z,20
2024-02-08T17:26:07.317Z,12
2024-02-08T17:38:07.300Z,6
2024-02-08T17:50:07.326Z,1
2024-02-08T18:02:07.267Z,1
2024-02-08T18:14:07.351Z,1
2024-02-08T18:26:07.339Z,1
2024-02-08T18:38:07.253Z,1
2024-02-08T18:50:07.645Z,1
2024-02-08T19:02:07.415Z,1
2024-02-08T19:14:07.321Z,1
2024-02-08T19:26:07.281Z,1
2024-02-08T19:38:07.501Z,1
2024-02-08T19:50:08.733Z,1
2024-02-08T20:02:07.677Z,1
2024-02-08T20:14:07.321Z,1
2024-02-08T20:26:07.512Z,1
2024-02-08T20:38:07.662Z,1
2024-02-08T20:50:08.645Z,1
2024-02-08T21:02:07.367Z,1
2024-02-08T21:14:07.558Z,1
2024-02-08T21:26:07.487Z,1
2024-02-08T21:38:07.481Z,1
2024-02-08T21:50:07.486Z,1
2024-02-08T22:02:07.502Z,1
2024-02-08T22:14:07.577Z,1
2024-02-08T22:26:07.588Z,1
2024-02-08T22:38:07.707Z,1
2024-02-08T22:50:07.733Z,1
2024-02-08T23:02:07.617Z,1
2024-02-08T23:14:07.577Z,1
2024-02-08T23:26:07.504Z,1
2024-02-08T23:38:07.668Z,1
2024-02-08T23:50:07.634Z,1
